• Join FlightAware (Why Join?)
  • Login
  • US Flag 
Rudolph Flight #1: Arrived! 
06:34AM EST


 

Airport Tracker/Info


-or-


 

Live Flight TrackerFlight Track Log ✈ JBU1502 ✈ 19-Aug-2014 ✈ KFLL - KJFK

Flight Track Log - Related Links

Times and Time Zones

All times are in EDT time to prevent confusion due to time zone crossing. See the JBU1502 flight status page for this flight to view local times or setup timezone preferences in your user account.

Time Position Orientation Groundspeed Altitude Reporting Facility
EDT Latitude Longitude Course Direction KTS MPH feet Rate Location/Type
06:14AM 26.1589 -79.7931 48° Northeast  Level FlightAware Approximate
06:15AM 26.2280 -79.6867 56° Northeast  Level FlightAware Approximate
06:16AM 26.3001 -79.5832 56° Northeast  Level FlightAware Approximate
06:16AM 26.2060 -79.7405 54° Northeast 351 404 11,700  Level FlightAware ADS-B (KEYW)
06:17AM 26.2461 -79.6807 53° Northeast 368 423 13,300 2,220 Climbing FlightAware ADS-B (KEYW)
06:17AM 26.2772 -79.6347 50° Northeast 378 435 14,300 2,040 Climbing FlightAware ADS-B (KEYW)
06:18AM 26.3475 -79.5777 33° Northeast 389 448 15,900 1,920 Climbing FlightAware ADS-B (KEYW)
06:19AM 26.3968 -79.5418 33° Northeast 395 455 16,900 1,920 Climbing FlightAware ADS-B (KEYW)
06:19AM 26.4446 -79.5067 33° Northeast 397 457 17,900 1,740 Climbing FlightAware ADS-B (KEYW)
06:20AM 26.4905 -79.4730 33° Northeast 407 468 18,700 1,620 Climbing FlightAware ADS-B (KEYW)
06:20AM 26.5352 -79.4402 33° Northeast 412 474 19,500 1,620 Climbing FlightAware ADS-B (KEYW)
06:21AM 26.5870 -79.4022 33° Northeast 417 480 20,400 1,380 Climbing FlightAware ADS-B (KEYW)
06:21AM 26.6377 -79.3650 33° Northeast 422 486 21,000 540 Climbing FlightAware ADS-B (KEYW)
06:22AM 26.6673 -79.3432 34° Northeast 421 484 21,000 240 Level FlightAware ADS-B (KMCO)
06:22AM 26.7364 -79.2922 33° Northeast 423 487 21,300 660 Climbing FlightAware ADS-B (KEYW)
06:23AM 26.7644 -79.2714 34° Northeast 425 489 21,700 900 Climbing FlightAware ADS-B (KMCO)
06:23AM 26.7861 -79.2554 33° Northeast 432 497 22,000 1,620 Climbing FlightAware ADS-B (KEYW)
06:23AM 26.8608 -79.2002 33° Northeast 436 502 22,900 1,260 Climbing FlightAware ADS-B (KEYW)
06:24AM 26.9059 -79.1668 34° Northeast 438 504 23,600 1,440 Climbing FlightAware ADS-B (KMCO)
06:24AM 26.9650 -79.1231 33° Northeast 440 506 24,400 1,500 Climbing FlightAware ADS-B (KEYW)
06:25AM 26.9707 -79.1188 34° Northeast 441 507 24,500 1,200 Climbing FlightAware ADS-B (KMCO)
06:25AM 27.0413 -79.0665 33° Northeast 447 514 25,300 1,020 Climbing FlightAware ADS-B (KEYW)
06:27AM 27.2121 -78.9388 34° Northeast 465 535 26,900 900 Climbing FlightAware ADS-B (KMCO)
06:28AM 27.2778 -78.8824 41° Northeast 470 541 27,600 960 Climbing FlightAware ADS-B (KMCO)
06:28AM 27.3439 -78.8174 41° Northeast 477 549 28,200 960 Climbing FlightAware ADS-B (KMCO)
06:29AM 27.4129 -78.7507 41° Northeast 478 550 28,900 1,020 Climbing FlightAware ADS-B (KMCO)
06:30AM 27.4957 -78.6714 41° Northeast 482 555 29,700 1,200 Climbing FlightAware ADS-B (KMCO)
06:31AM 27.6323 -78.5415 40° Northeast 469 540 31,600 840 Climbing FlightAware ADS-B (KMCO)
06:34AM 27.8757 -78.3005 41° Northeast 463 533 33,000 420 Climbing FlightAware ADS-B (KMCO)
06:34AM 27.9299 -78.2468 41° Northeast 466 536 33,000  Level FlightAware ADS-B (KMCO)
06:36AM 28.0705 -78.1059 42° Northeast 465 535 33,000 -60 Level FlightAware ADS-B (KMCO)
06:37AM 28.1414 -78.0353 42° Northeast 463 533 32,900 -60 Descending Miami Center
06:38AM 28.2381 -77.9372 42° Northeast 465 535 32,900  Level Miami Center
06:39AM 28.3350 -77.8403 41° Northeast 465 535 32,900  Level Miami Center
06:40AM 28.4325 -77.7436 41° Northeast 465 535 32,900  Level Miami Center
06:41AM 28.5444 -77.6722 29° Northeast 456 525 32,900  Level Miami Center
06:42AM 28.6919 -77.6317 14° North 453 521 32,900  Level Miami Center
06:43AM 28.8172 -77.6272 North 451 519 32,900  Level Miami Center
06:44AM 28.9436 -77.6383 356° North 452 520 32,900  Level Miami Center
06:45AM 29.0700 -77.6469 357° North 452 520 32,900  Level Miami Center
06:46AM 29.1953 -77.6553 357° North 452 520 32,900  Level Miami Center
06:47AM 29.3211 -77.6633 357° North 452 520 32,900  Level Miami Center
06:48AM 29.4478 -77.6694 358° North 452 520 32,900  Level Miami Center
06:49AM 29.5558 -77.7578 325° Northwest 464 534 32,900  Level Miami Center
06:50AM 29.6500 -77.8561 318° Northwest 463 533 32,900  Level Miami Center
06:51AM 29.7372 -77.9622 313° West 463 533 32,900  Level Miami Center
06:52AM 29.8239 -78.0658 314° West 456 525 32,900  Level Miami Center
06:53AM 29.9464 -78.0967 348° North 452 520 32,900  Level Miami Center
06:54AM 30.0686 -78.0878 North 450 518 32,900  Level Miami Center
06:55AM 30.2022 -78.0769 North 465 535 32,900  Level Miami Center
06:56AM 30.3239 -78.0883 355° North 456 525 32,900  Level Miami Center
06:57AM 30.4517 -78.0997 356° North 455 524 32,900  Level Miami Center
06:58AM 30.5806 -78.0956 North 461 531 32,900  Level Miami Center
06:59AM 30.7097 -78.0925 North 461 531 32,900  Level Miami Center
07:00AM 30.8414 -78.0903 North 470 541 32,900  Level Miami Center
07:01AM 30.9686 -78.0556 13° North 471 542 32,900  Level Miami Center
07:02AM 31.0944 -78.0144 16° North 471 542 32,900  Level Miami Center
07:03AM 31.2178 -77.9717 17° North 471 542 32,900  Level Miami Center
07:04AM 31.3436 -77.9297 16° North 469 540 32,900  Level Miami Center
07:05AM 31.4942 -77.8789 16° North 470 541 32,900  Level Miami Center
07:06AM 31.6192 -77.8353 17° North 470 541 32,900  Level Miami Center
07:07AM 31.7856 -77.7775 16° North 472 543 32,900  Level Jacksonville Center
07:08AM 31.9111 -77.7292 18° North 467 537 32,900  Level Jacksonville Center
07:09AM 32.0261 -77.6883 17° North 472 543 32,900  Level Jacksonville Center
07:10AM 32.1642 -77.6436 15° North 472 543 32,900  Level Jacksonville Center
07:11AM 32.2794 -77.6050 16° North 472 543 32,900  Level Jacksonville Center
07:12AM 32.4069 -77.5583 17° North 472 543 32,900  Level Jacksonville Center
07:13AM 32.5322 -77.5139 17° North 472 543 32,900  Level Jacksonville Center
07:14AM 32.6578 -77.4719 16° North 472 543 32,900  Level Jacksonville Center
07:15AM 32.7833 -77.4275 17° North 472 543 32,900  Level Jacksonville Center
07:16AM 32.9128 -77.3825 16° North 472 543 32,900  Level Jacksonville Center
07:17AM 32.9647 -77.3675 14° North 474 545 32,900  Level Washington Center
07:18AM 33.1164 -77.3144 16° North 474 545 32,900  Level Washington Center
07:19AM 33.2408 -77.2692 17° North 474 545 32,900  Level Washington Center
07:20AM 33.3650 -77.2261 16° North 472 543 32,900  Level Washington Center
07:21AM 33.4900 -77.1811 17° North 472 543 32,900  Level Washington Center
07:22AM 33.6136 -77.1369 17° North 471 542 32,900  Level Washington Center
07:23AM 33.7622 -77.0844 16° North 469 540 32,900  Level Washington Center
07:24AM 33.8867 -77.0400 17° North 469 540 32,900  Level Washington Center
07:25AM 34.0111 -76.9958 16° North 469 540 32,900  Level Washington Center
07:26AM 34.1358 -76.9503 17° North 469 540 32,900  Level Washington Center
07:27AM 34.2592 -76.9064 16° North 469 540 32,900  Level Washington Center
07:28AM 34.4089 -76.8517 17° North 469 540 32,900  Level Washington Center
07:29AM 34.5325 -76.8061 17° North 468 539 32,900  Level Washington Center
07:30AM 34.6586 -76.7611 16° North 470 541 32,900  Level Washington Center
07:31AM 34.7839 -76.7150 17° North 470 541 32,900  Level Washington Center
07:32AM 34.9097 -76.6700 16° North 471 542 32,900  Level Washington Center
07:38AM 35.6428 -76.3980 16° North 472 543 33,000  Climbing FlightAware ADS-B
07:39AM 35.7336 -76.3639 17° North 470 541 33,000  Level FlightAware ADS-B
07:39AM 35.8249 -76.3296 17° North 473 544 33,000  Level FlightAware ADS-B
07:40AM 35.9080 -76.2983 17° North 472 543 33,000  Level FlightAware ADS-B
07:42AM 36.1691 -76.1995 17° North 469 540 33,000  Level FlightAware ADS-B
07:43AM 36.2674 -76.1621 17° North 467 537 33,000  Level FlightAware ADS-B
07:44AM 36.3662 -76.1243 17° North 463 533 33,000  Level FlightAware ADS-B
07:45AM 36.5675 -76.0473 17° North 460 529 33,000  Level FlightAware ADS-B
07:47AM 36.7272 -75.9859 17° North 459 528 33,000  Level FlightAware ADS-B
07:47AM 36.8265 -75.9477 17° North 463 533 33,000  Level FlightAware ADS-B
07:48AM 36.9554 -75.8978 17° North 463 533 33,000  Level FlightAware ADS-B
07:52AM 37.4392 -75.7089 17° North 461 531 33,000  Level FlightAware ADS-B
07:53AM 37.5338 -75.6715 17° North 457 526 33,000  Level FlightAware ADS-B (KSBY)
07:54AM 37.6211 -75.6373 17° North 459 528 33,000  Level FlightAware ADS-B (KSBY)
07:54AM 37.6851 -75.6120 18° North 458 527 33,000  Level FlightAware ADS-B (KSBY)
07:55AM 37.7841 -75.5726 17° North 452 520 33,000  Level FlightAware ADS-B (KSBY)
07:56AM 37.8692 -75.5389 17° North 450 518 33,000  Level FlightAware ADS-B
07:57AM 37.9413 -75.5101 17° North 452 520 33,000  Level FlightAware ADS-B
07:57AM 38.0035 -75.4852 18° North 454 522 33,000  Level FlightAware ADS-B (KSBY)
07:58AM 38.0995 -75.4364 27° Northeast 457 526 33,000  Level FlightAware ADS-B (KSBY)
07:59AM 38.1691 -75.3922 26° Northeast 455 524 33,000  Level FlightAware ADS-B (KSBY)
07:59AM 38.2486 -75.3428 26° Northeast 456 525 33,000  Level FlightAware ADS-B (KSBY)
08:00AM 38.3220 -75.2965 27° Northeast 455 524 33,000  Level FlightAware ADS-B (KSBY)
08:01AM 38.4034 -75.2449 27° Northeast 455 524 33,000  Level FlightAware ADS-B (KSBY)
08:01AM 38.4781 -75.1973 27° Northeast 455 524 33,000  Level FlightAware ADS-B (KSBY)
08:02AM 38.5075 -75.1786 27° Northeast 456 525 33,000  Level FlightAware ADS-B (KSBY)
08:04AM 38.7533 -75.0214 27° Northeast 457 526 33,000  Level FlightAware ADS-B
08:05AM 38.8664 -74.9486 27° Northeast 460 529 33,000 -480 Level FlightAware ADS-B
08:06AM 38.9806 -74.8749 27° Northeast 458 527 32,100 -1,440 Descending FlightAware ADS-B
08:07AM 39.0190 -74.8501 27° Northeast 452 520 30,200 -2,160 Descending FlightAware ADS-B
08:09AM 39.2754 -74.6061 40° Northeast 439 505 25,800 -2,220 Descending FlightAware ADS-B (KPHL)
08:10AM 39.3631 -74.5113 40° Northeast 434 499 23,600 -2,280 Descending FlightAware ADS-B (KPHL)
08:10AM 39.4026 -74.4683 40° Northeast 426 490 21,600 -2,040 Descending FlightAware ADS-B (KPHL)
08:12AM 39.5591 -74.2971 40° Northeast 407 468 19,400 -1,500 Descending FlightAware ADS-B (KPHL)
08:13AM 39.6460 -74.2018 40° Northeast 395 455 18,200 -1,680 Descending FlightAware ADS-B (KPHL)
08:14AM 39.7316 -74.1075 41° Northeast 384 442 16,100 -1,860 Descending FlightAware ADS-B (KPHL)
08:15AM 39.8047 -74.0267 41° Northeast 358 412 14,500 -1,500 Descending FlightAware ADS-B (KPHL)
08:16AM 39.8890 -73.9523 28° Northeast 350 403 13,100 -1,500 Descending FlightAware ADS-B (KPHL)
08:17AM 39.9686 -73.8962 29° Northeast 341 392 11,500 -1,380 Descending FlightAware ADS-B (KPHL)
08:17AM 40.0211 -73.8636 29° Northeast 337 388 11,000 -360 Descending New York Center
08:18AM 40.0953 -73.8100 29° Northeast 315 362 11,000 -120 Level New York Center
08:19AM 40.1333 -73.7833 28° Northeast 300 345 10,900 -1,080 Descending New York TRACON
08:20AM 40.2000 -73.7333 30° Northeast 294 338 9,300 -1,800 Descending New York TRACON
08:21AM 40.2833 -73.7333 360° North 281 323 7,300 -1,680 Descending New York TRACON
08:22AM 40.3333 -73.8000 315° West 270 311 6,000 -1,080 Descending New York TRACON
08:23AM 40.3833 -73.8667 315° West 270 311 5,300 -1,140 Descending New York TRACON
08:24AM 40.4333 -73.9333 315° West 257 296 3,800 -1,080 Descending New York TRACON
08:25AM 40.4833 -73.9000 27° Northeast 212 244 3,200 -840 Descending New York TRACON
08:26AM 40.5333 -73.8500 37° Northeast 206 237 2,300 -960 Descending New York TRACON
08:27AM 40.5667 -73.8167 37° Northeast 172 198 1,200 -900 Descending New York TRACON
08:28AM 40.6000 -73.7833 37° Northeast 134 154 500 -720 Descending New York TRACON
08:31AM 40.6348 -73.7636 237° Southwest  Level FlightAware Approximate